Hauptseite
METAR-TAF:

METAR-TAF

Flughäfen :

Faßberg, Deutschland

Heeresflugplatz Faßberg

Breite: 52-55N, Länge: 010-11E, Höhe: 75 m

Beobachtung

Neuester Wetterbericht von vor 1 Stunde und 10 Minuten, um 16:20 UTC
Wind 6 kt aus West/Nordwest
Temperatur 10°C
Luftfeuchtigkeit 50%
Luftdruck 1018 hPa
Sichtweite 10 km oder mehr
Leicht bewölkt in der Höhe von 5000 ft
Aufgelockert bewölkt in der Höhe von 7000 ft

METAR: ETHS 291620Z 30006KT 9999 FEW050 SCT070 10/M00 Q1018 BLU+

Zeit: 19:30 (17:30 UTC)


TAF: fehlend

Wetterbeobachtungen und Prognosen von mehr als 4000 Flughäfen (METAR und TAF Bericht).

Die verfügbaren Stationen werden durch gelbe und rote Markierungen auf der Karte dargestellt.

Führen Sie die Maus auf sie, um den Namen der Station zu sehen.

Darauf klicken, um die Beobachtung von Wetterbeobachtungen und Prognosen zu sehen.

Um die Karte zu ändern : klicken Sie auf den grünen Tasten mit einem schwarzen Kreuz Zum Vergrößern, auf den grünen Button mit einem Gedankenstrich zu verkleinern, oder auf die grünen Pfeile für benachbarte Karten.


METAR-TAF: